sensor_id;sensor_type;location;lat;lon;timestamp;P1;durP1;ratioP1;P2;durP2;ratioP2
17384;SDS011;8810;48.680;8.894;2022-10-31T00:01:22;4.07;;;1.97;;
17384;SDS011;8810;48.680;8.894;2022-10-31T00:03:51;4.13;;;2.10;;
17384;SDS011;8810;48.680;8.894;2022-10-31T00:06:19;3.80;;;1.80;;
17384;SDS011;8810;48.680;8.894;2022-10-31T00:08:47;4.00;;;2.13;;
17384;SDS011;8810;48.680;8.894;2022-10-31T00:11:18;3.60;;;2.13;;
17384;SDS011;8810;48.680;8.894;2022-10-31T00:13:44;7.77;;;2.30;;
17384;SDS011;8810;48.680;8.894;2022-10-31T00:16:14;6.43;;;2.50;;
17384;SDS011;8810;48.680;8.894;2022-10-31T00:18:41;7.87;;;2.43;;
17384;SDS011;8810;48.680;8.894;2022-10-31T00:21:09;9.20;;;2.10;;
17384;SDS011;8810;48.680;8.894;2022-10-31T00:23:37;3.93;;;2.20;;
17384;SDS011;8810;48.680;8.894;2022-10-31T00:26:04;5.70;;;2.03;;
17384;SDS011;8810;48.680;8.894;2022-10-31T00:28:32;6.00;;;2.10;;
17384;SDS011;8810;48.680;8.894;2022-10-31T00:30:59;5.57;;;2.50;;
17384;SDS011;8810;48.680;8.894;2022-10-31T00:33:26;5.00;;;2.10;;
17384;SDS011;8810;48.680;8.894;2022-10-31T00:35:53;4.13;;;2.13;;
17384;SDS011;8810;48.680;8.894;2022-10-31T00:38:20;6.87;;;2.23;;
17384;SDS011;8810;48.680;8.894;2022-10-31T00:40:48;5.33;;;2.17;;
17384;SDS011;8810;48.680;8.894;2022-10-31T00:43:15;7.67;;;1.90;;
17384;SDS011;8810;48.680;8.894;2022-10-31T00:45:42;6.67;;;2.20;;
17384;SDS011;8810;48.680;8.894;2022-10-31T00:48:10;6.17;;;2.17;;
17384;SDS011;8810;48.680;8.894;2022-10-31T00:50:37;6.43;;;2.40;;
17384;SDS011;8810;48.680;8.894;2022-10-31T00:53:04;4.47;;;1.80;;
17384;SDS011;8810;48.680;8.894;2022-10-31T00:55:31;2.87;;;2.10;;
17384;SDS011;8810;48.680;8.894;2022-10-31T00:57:59;4.90;;;2.10;;
17384;SDS011;8810;48.680;8.894;2022-10-31T01:00:26;7.53;;;2.40;;
17384;SDS011;8810;48.680;8.894;2022-10-31T01:02:53;7.23;;;2.27;;
17384;SDS011;8810;48.680;8.894;2022-10-31T01:05:20;4.17;;;2.30;;
17384;SDS011;8810;48.680;8.894;2022-10-31T01:07:47;5.63;;;2.03;;
17384;SDS011;8810;48.680;8.894;2022-10-31T01:10:14;3.43;;;2.23;;
17384;SDS011;8810;48.680;8.894;2022-10-31T01:12:42;6.30;;;2.47;;
17384;SDS011;8810;48.680;8.894;2022-10-31T01:15:12;6.23;;;2.20;;
17384;SDS011;8810;48.680;8.894;2022-10-31T01:17:43;5.67;;;2.23;;
17384;SDS011;8810;48.680;8.894;2022-10-31T01:20:10;2.37;;;1.80;;
17384;SDS011;8810;48.680;8.894;2022-10-31T01:22:38;4.77;;;2.20;;
17384;SDS011;8810;48.680;8.894;2022-10-31T01:25:06;5.20;;;2.20;;
17384;SDS011;8810;48.680;8.894;2022-10-31T01:27:33;3.50;;;1.80;;
17384;SDS011;8810;48.680;8.894;2022-10-31T01:30:00;6.53;;;2.53;;
17384;SDS011;8810;48.680;8.894;2022-10-31T01:32:29;2.70;;;1.83;;
17384;SDS011;8810;48.680;8.894;2022-10-31T01:34:56;3.70;;;2.00;;
17384;SDS011;8810;48.680;8.894;2022-10-31T01:37:23;3.87;;;2.27;;
17384;SDS011;8810;48.680;8.894;2022-10-31T01:39:49;8.60;;;2.37;;
17384;SDS011;8810;48.680;8.894;2022-10-31T01:42:18;5.40;;;2.10;;
17384;SDS011;8810;48.680;8.894;2022-10-31T01:44:56;3.27;;;2.00;;
17384;SDS011;8810;48.680;8.894;2022-10-31T01:47:33;4.50;;;2.03;;
17384;SDS011;8810;48.680;8.894;2022-10-31T01:50:06;4.67;;;2.23;;
17384;SDS011;8810;48.680;8.894;2022-10-31T01:52:39;5.17;;;1.97;;
17384;SDS011;8810;48.680;8.894;2022-10-31T01:55:09;7.27;;;2.60;;
17384;SDS011;8810;48.680;8.894;2022-10-31T01:57:40;3.77;;;2.13;;
17384;SDS011;8810;48.680;8.894;2022-10-31T02:00:10;4.67;;;2.10;;
17384;SDS011;8810;48.680;8.894;2022-10-31T02:02:39;8.70;;;2.40;;
17384;SDS011;8810;48.680;8.894;2022-10-31T02:05:07;4.67;;;2.20;;
17384;SDS011;8810;48.680;8.894;2022-10-31T02:07:39;3.57;;;2.40;;
17384;SDS011;8810;48.680;8.894;2022-10-31T02:10:12;5.63;;;2.60;;
17384;SDS011;8810;48.680;8.894;2022-10-31T02:12:39;4.17;;;2.20;;
17384;SDS011;8810;48.680;8.894;2022-10-31T02:15:07;5.13;;;2.13;;
17384;SDS011;8810;48.680;8.894;2022-10-31T02:17:35;4.50;;;2.20;;
17384;SDS011;8810;48.680;8.894;2022-10-31T02:20:07;10.50;;;2.50;;
17384;SDS011;8810;48.680;8.894;2022-10-31T02:22:40;5.33;;;2.37;;
17384;SDS011;8810;48.680;8.894;2022-10-31T02:25:23;4.47;;;2.00;;
17384;SDS011;8810;48.680;8.894;2022-10-31T02:28:26;5.67;;;2.33;;
17384;SDS011;8810;48.680;8.894;2022-10-31T02:31:15;7.73;;;2.10;;
17384;SDS011;8810;48.680;8.894;2022-10-31T02:33:50;8.57;;;2.20;;
17384;SDS011;8810;48.680;8.894;2022-10-31T02:36:20;4.23;;;2.07;;
17384;SDS011;8810;48.680;8.894;2022-10-31T02:38:56;5.70;;;2.40;;
17384;SDS011;8810;48.680;8.894;2022-10-31T02:41:32;4.60;;;2.20;;
17384;SDS011;8810;48.680;8.894;2022-10-31T02:44:05;4.30;;;2.50;;
17384;SDS011;8810;48.680;8.894;2022-10-31T02:46:39;4.67;;;2.13;;
17384;SDS011;8810;48.680;8.894;2022-10-31T02:49:16;6.37;;;2.80;;
17384;SDS011;8810;48.680;8.894;2022-10-31T02:51:48;5.77;;;2.47;;
17384;SDS011;8810;48.680;8.894;2022-10-31T02:54:19;6.43;;;2.37;;
17384;SDS011;8810;48.680;8.894;2022-10-31T02:56:49;4.37;;;2.10;;
17384;SDS011;8810;48.680;8.894;2022-10-31T02:59:20;5.13;;;2.27;;
17384;SDS011;8810;48.680;8.894;2022-10-31T03:01:56;3.87;;;2.40;;
17384;SDS011;8810;48.680;8.894;2022-10-31T03:07:52;4.83;;;2.37;;
17384;SDS011;8810;48.680;8.894;2022-10-31T03:10:27;6.53;;;2.33;;
17384;SDS011;8810;48.680;8.894;2022-10-31T03:13:04;3.13;;;2.20;;
17384;SDS011;8810;48.680;8.894;2022-10-31T03:15:36;5.47;;;2.40;;
17384;SDS011;8810;48.680;8.894;2022-10-31T03:18:07;5.07;;;2.30;;
17384;SDS011;8810;48.680;8.894;2022-10-31T03:20:39;3.40;;;2.20;;
17384;SDS011;8810;48.680;8.894;2022-10-31T03:23:09;5.53;;;2.27;;
17384;SDS011;8810;48.680;8.894;2022-10-31T03:25:39;5.33;;;2.10;;
17384;SDS011;8810;48.680;8.894;2022-10-31T03:28:08;4.40;;;2.33;;
17384;SDS011;8810;48.680;8.894;2022-10-31T03:30:38;5.07;;;2.40;;
17384;SDS011;8810;48.680;8.894;2022-10-31T03:33:10;7.40;;;2.30;;
17384;SDS011;8810;48.680;8.894;2022-10-31T03:35:41;3.67;;;2.27;;
17384;SDS011;8810;48.680;8.894;2022-10-31T03:38:10;7.33;;;2.40;;
17384;SDS011;8810;48.680;8.894;2022-10-31T03:40:39;4.27;;;2.03;;
17384;SDS011;8810;48.680;8.894;2022-10-31T03:43:10;4.23;;;2.37;;
17384;SDS011;8810;48.680;8.894;2022-10-31T03:45:41;6.17;;;2.43;;
17384;SDS011;8810;48.680;8.894;2022-10-31T03:48:12;4.83;;;2.50;;
17384;SDS011;8810;48.680;8.894;2022-10-31T03:50:41;9.47;;;2.57;;
17384;SDS011;8810;48.680;8.894;2022-10-31T03:53:16;3.13;;;2.20;;
17384;SDS011;8810;48.680;8.894;2022-10-31T03:55:49;9.50;;;2.67;;
17384;SDS011;8810;48.680;8.894;2022-10-31T03:58:19;7.80;;;2.63;;
17384;SDS011;8810;48.680;8.894;2022-10-31T04:00:48;5.67;;;2.77;;
17384;SDS011;8810;48.680;8.894;2022-10-31T04:03:21;9.30;;;2.70;;
17384;SDS011;8810;48.680;8.894;2022-10-31T04:05:52;5.20;;;1.83;;
17384;SDS011;8810;48.680;8.894;2022-10-31T04:08:21;5.20;;;2.43;;
17384;SDS011;8810;48.680;8.894;2022-10-31T04:10:52;7.77;;;3.17;;
17384;SDS011;8810;48.680;8.894;2022-10-31T04:13:21;9.47;;;2.43;;
17384;SDS011;8810;48.680;8.894;2022-10-31T04:15:50;8.00;;;2.90;;
17384;SDS011;8810;48.680;8.894;2022-10-31T04:18:22;6.80;;;2.50;;
17384;SDS011;8810;48.680;8.894;2022-10-31T04:20:58;4.20;;;2.20;;
17384;SDS011;8810;48.680;8.894;2022-10-31T04:23:27;4.40;;;2.33;;
17384;SDS011;8810;48.680;8.894;2022-10-31T04:25:54;6.03;;;2.50;;
17384;SDS011;8810;48.680;8.894;2022-10-31T04:28:21;5.00;;;2.20;;
17384;SDS011;8810;48.680;8.894;2022-10-31T04:30:48;7.83;;;2.37;;
17384;SDS011;8810;48.680;8.894;2022-10-31T04:33:16;8.00;;;2.93;;
17384;SDS011;8810;48.680;8.894;2022-10-31T04:35:44;3.73;;;2.50;;
17384;SDS011;8810;48.680;8.894;2022-10-31T04:38:11;8.50;;;2.80;;
17384;SDS011;8810;48.680;8.894;2022-10-31T04:40:38;6.20;;;2.87;;
17384;SDS011;8810;48.680;8.894;2022-10-31T04:43:05;3.63;;;2.30;;
17384;SDS011;8810;48.680;8.894;2022-10-31T04:45:32;8.67;;;2.53;;
17384;SDS011;8810;48.680;8.894;2022-10-31T04:47:58;7.17;;;2.23;;
17384;SDS011;8810;48.680;8.894;2022-10-31T04:50:25;5.90;;;2.83;;
17384;SDS011;8810;48.680;8.894;2022-10-31T04:52:53;4.97;;;2.27;;
17384;SDS011;8810;48.680;8.894;2022-10-31T04:55:20;8.73;;;2.17;;
17384;SDS011;8810;48.680;8.894;2022-10-31T04:57:47;7.03;;;2.40;;
17384;SDS011;8810;48.680;8.894;2022-10-31T05:00:16;6.93;;;2.47;;
17384;SDS011;8810;48.680;8.894;2022-10-31T05:02:45;8.37;;;2.30;;
17384;SDS011;8810;48.680;8.894;2022-10-31T05:05:12;7.67;;;2.43;;
17384;SDS011;8810;48.680;8.894;2022-10-31T05:07:40;6.77;;;2.50;;
17384;SDS011;8810;48.680;8.894;2022-10-31T05:10:09;6.63;;;2.53;;
17384;SDS011;8810;48.680;8.894;2022-10-31T05:12:37;6.73;;;2.70;;
17384;SDS011;8810;48.680;8.894;2022-10-31T05:15:04;7.00;;;3.10;;
17384;SDS011;8810;48.680;8.894;2022-10-31T05:17:32;6.60;;;2.40;;
17384;SDS011;8810;48.680;8.894;2022-10-31T05:19:59;4.60;;;2.50;;
17384;SDS011;8810;48.680;8.894;2022-10-31T05:22:25;5.33;;;2.67;;
17384;SDS011;8810;48.680;8.894;2022-10-31T05:24:52;3.53;;;2.30;;
17384;SDS011;8810;48.680;8.894;2022-10-31T05:27:20;3.97;;;2.50;;
17384;SDS011;8810;48.680;8.894;2022-10-31T05:29:47;4.97;;;2.63;;
17384;SDS011;8810;48.680;8.894;2022-10-31T05:32:14;3.90;;;2.33;;
17384;SDS011;8810;48.680;8.894;2022-10-31T05:34:41;6.47;;;2.83;;
17384;SDS011;8810;48.680;8.894;2022-10-31T05:37:07;6.30;;;2.63;;
17384;SDS011;8810;48.680;8.894;2022-10-31T05:39:34;6.17;;;2.37;;
17384;SDS011;8810;48.680;8.894;2022-10-31T05:42:01;3.33;;;2.17;;
17384;SDS011;8810;48.680;8.894;2022-10-31T05:44:29;4.20;;;2.30;;
17384;SDS011;8810;48.680;8.894;2022-10-31T05:46:56;5.37;;;2.30;;
17384;SDS011;8810;48.680;8.894;2022-10-31T05:49:23;4.13;;;2.33;;
17384;SDS011;8810;48.680;8.894;2022-10-31T05:51:50;8.80;;;2.63;;
17384;SDS011;8810;48.680;8.894;2022-10-31T05:54:17;13.40;;;2.83;;
17384;SDS011;8810;48.680;8.894;2022-10-31T05:56:43;5.27;;;2.33;;
17384;SDS011;8810;48.680;8.894;2022-10-31T05:59:10;6.53;;;2.80;;
17384;SDS011;8810;48.680;8.894;2022-10-31T06:01:38;5.23;;;2.20;;
17384;SDS011;8810;48.680;8.894;2022-10-31T06:04:05;5.87;;;2.20;;
17384;SDS011;8810;48.680;8.894;2022-10-31T06:06:32;8.27;;;2.87;;
17384;SDS011;8810;48.680;8.894;2022-10-31T06:08:59;7.87;;;2.87;;
17384;SDS011;8810;48.680;8.894;2022-10-31T06:11:26;8.70;;;2.73;;
17384;SDS011;8810;48.680;8.894;2022-10-31T06:13:52;6.57;;;2.40;;
17384;SDS011;8810;48.680;8.894;2022-10-31T06:16:19;8.87;;;2.87;;
17384;SDS011;8810;48.680;8.894;2022-10-31T06:18:48;7.57;;;2.70;;
17384;SDS011;8810;48.680;8.894;2022-10-31T06:21:15;7.47;;;2.40;;
17384;SDS011;8810;48.680;8.894;2022-10-31T06:23:41;6.80;;;2.57;;
17384;SDS011;8810;48.680;8.894;2022-10-31T06:26:08;4.90;;;2.80;;
17384;SDS011;8810;48.680;8.894;2022-10-31T06:28:35;5.60;;;2.67;;
17384;SDS011;8810;48.680;8.894;2022-10-31T06:31:02;6.83;;;2.70;;
17384;SDS011;8810;48.680;8.894;2022-10-31T06:33:29;12.20;;;2.67;;
17384;SDS011;8810;48.680;8.894;2022-10-31T06:35:57;4.47;;;2.37;;
17384;SDS011;8810;48.680;8.894;2022-10-31T06:38:25;6.60;;;2.83;;
17384;SDS011;8810;48.680;8.894;2022-10-31T06:40:52;6.73;;;2.57;;
17384;SDS011;8810;48.680;8.894;2022-10-31T06:43:19;6.63;;;2.47;;
17384;SDS011;8810;48.680;8.894;2022-10-31T06:45:47;5.40;;;2.40;;
17384;SDS011;8810;48.680;8.894;2022-10-31T06:48:13;4.97;;;2.50;;
17384;SDS011;8810;48.680;8.894;2022-10-31T06:50:40;8.10;;;2.90;;
17384;SDS011;8810;48.680;8.894;2022-10-31T06:53:08;4.67;;;2.60;;
17384;SDS011;8810;48.680;8.894;2022-10-31T06:55:36;4.90;;;2.63;;
17384;SDS011;8810;48.680;8.894;2022-10-31T06:58:02;4.73;;;2.40;;
17384;SDS011;8810;48.680;8.894;2022-10-31T07:00:30;7.53;;;2.80;;
17384;SDS011;8810;48.680;8.894;2022-10-31T07:02:57;6.97;;;2.80;;
17384;SDS011;8810;48.680;8.894;2022-10-31T07:05:25;8.73;;;2.20;;
17384;SDS011;8810;48.680;8.894;2022-10-31T07:07:53;4.87;;;2.40;;
17384;SDS011;8810;48.680;8.894;2022-10-31T07:10:22;5.63;;;2.63;;
17384;SDS011;8810;48.680;8.894;2022-10-31T07:12:53;5.80;;;2.60;;
17384;SDS011;8810;48.680;8.894;2022-10-31T07:15:21;6.23;;;2.60;;
17384;SDS011;8810;48.680;8.894;2022-10-31T07:17:47;9.07;;;2.87;;
17384;SDS011;8810;48.680;8.894;2022-10-31T07:20:14;5.90;;;2.63;;
17384;SDS011;8810;48.680;8.894;2022-10-31T07:22:41;5.07;;;2.70;;
17384;SDS011;8810;48.680;8.894;2022-10-31T07:25:08;6.43;;;3.13;;
17384;SDS011;8810;48.680;8.894;2022-10-31T07:27:37;4.73;;;2.77;;
17384;SDS011;8810;48.680;8.894;2022-10-31T07:30:05;5.93;;;2.43;;
17384;SDS011;8810;48.680;8.894;2022-10-31T07:32:39;7.07;;;2.50;;
17384;SDS011;8810;48.680;8.894;2022-10-31T07:35:07;6.73;;;2.67;;
17384;SDS011;8810;48.680;8.894;2022-10-31T07:37:35;5.37;;;2.30;;
17384;SDS011;8810;48.680;8.894;2022-10-31T07:40:02;6.97;;;2.90;;
17384;SDS011;8810;48.680;8.894;2022-10-31T07:42:33;6.57;;;2.60;;
17384;SDS011;8810;48.680;8.894;2022-10-31T07:45:02;7.27;;;2.53;;
17384;SDS011;8810;48.680;8.894;2022-10-31T07:47:29;4.57;;;2.60;;
17384;SDS011;8810;48.680;8.894;2022-10-31T07:50:03;7.60;;;2.40;;
17384;SDS011;8810;48.680;8.894;2022-10-31T07:52:30;7.47;;;2.37;;
17384;SDS011;8810;48.680;8.894;2022-10-31T07:54:57;7.20;;;2.67;;
17384;SDS011;8810;48.680;8.894;2022-10-31T07:57:24;9.80;;;2.87;;
17384;SDS011;8810;48.680;8.894;2022-10-31T07:59:51;6.43;;;3.13;;
17384;SDS011;8810;48.680;8.894;2022-10-31T08:02:19;7.37;;;2.67;;
17384;SDS011;8810;48.680;8.894;2022-10-31T08:04:46;11.33;;;2.63;;
17384;SDS011;8810;48.680;8.894;2022-10-31T08:07:14;7.30;;;2.90;;
17384;SDS011;8810;48.680;8.894;2022-10-31T08:09:41;11.43;;;3.33;;
17384;SDS011;8810;48.680;8.894;2022-10-31T08:12:08;10.27;;;2.77;;
17384;SDS011;8810;48.680;8.894;2022-10-31T08:14:34;15.87;;;3.20;;
17384;SDS011;8810;48.680;8.894;2022-10-31T08:17:01;8.37;;;3.13;;
17384;SDS011;8810;48.680;8.894;2022-10-31T08:19:30;8.83;;;3.27;;
17384;SDS011;8810;48.680;8.894;2022-10-31T08:21:56;8.80;;;3.40;;
17384;SDS011;8810;48.680;8.894;2022-10-31T08:24:23;5.40;;;3.47;;
17384;SDS011;8810;48.680;8.894;2022-10-31T08:26:50;10.30;;;3.67;;
17384;SDS011;8810;48.680;8.894;2022-10-31T08:29:18;8.30;;;3.30;;
17384;SDS011;8810;48.680;8.894;2022-10-31T08:31:45;12.67;;;3.90;;
17384;SDS011;8810;48.680;8.894;2022-10-31T08:34:12;12.43;;;3.80;;
17384;SDS011;8810;48.680;8.894;2022-10-31T08:36:40;4.40;;;2.80;;
17384;SDS011;8810;48.680;8.894;2022-10-31T08:39:09;6.67;;;3.17;;
17384;SDS011;8810;48.680;8.894;2022-10-31T08:41:36;9.03;;;3.20;;
17384;SDS011;8810;48.680;8.894;2022-10-31T08:44:03;9.73;;;3.87;;
17384;SDS011;8810;48.680;8.894;2022-10-31T08:46:30;9.53;;;4.13;;
17384;SDS011;8810;48.680;8.894;2022-10-31T08:48:57;9.73;;;4.27;;
17384;SDS011;8810;48.680;8.894;2022-10-31T08:51:24;9.93;;;3.97;;
17384;SDS011;8810;48.680;8.894;2022-10-31T08:53:52;9.93;;;3.93;;
17384;SDS011;8810;48.680;8.894;2022-10-31T08:56:19;9.40;;;3.67;;
17384;SDS011;8810;48.680;8.894;2022-10-31T08:58:47;7.67;;;3.37;;
17384;SDS011;8810;48.680;8.894;2022-10-31T09:01:14;10.40;;;3.57;;
17384;SDS011;8810;48.680;8.894;2022-10-31T09:03:41;7.57;;;3.20;;
17384;SDS011;8810;48.680;8.894;2022-10-31T09:06:07;6.37;;;2.93;;
17384;SDS011;8810;48.680;8.894;2022-10-31T09:08:34;8.53;;;3.13;;
17384;SDS011;8810;48.680;8.894;2022-10-31T09:11:03;6.97;;;3.20;;
17384;SDS011;8810;48.680;8.894;2022-10-31T09:13:31;8.07;;;3.47;;
17384;SDS011;8810;48.680;8.894;2022-10-31T09:15:58;10.03;;;3.40;;
17384;SDS011;8810;48.680;8.894;2022-10-31T09:18:25;8.85;;;3.40;;
17384;SDS011;8810;48.680;8.894;2022-10-31T09:20:53;6.68;;;3.22;;
17384;SDS011;8810;48.680;8.894;2022-10-31T09:23:23;6.78;;;3.08;;
17384;SDS011;8810;48.680;8.894;2022-10-31T09:25:50;7.10;;;3.35;;
17384;SDS011;8810;48.680;8.894;2022-10-31T09:28:20;10.45;;;3.63;;
17384;SDS011;8810;48.680;8.894;2022-10-31T09:30:49;8.15;;;3.17;;
17384;SDS011;8810;48.680;8.894;2022-10-31T09:33:17;6.47;;;2.97;;
17384;SDS011;8810;48.680;8.894;2022-10-31T09:35:44;9.18;;;3.03;;
17384;SDS011;8810;48.680;8.894;2022-10-31T09:38:11;6.95;;;3.20;;
17384;SDS011;8810;48.680;8.894;2022-10-31T09:40:40;6.43;;;3.20;;
17384;SDS011;8810;48.680;8.894;2022-10-31T09:43:12;6.30;;;3.28;;
17384;SDS011;8810;48.680;8.894;2022-10-31T09:45:47;8.63;;;2.90;;
17384;SDS011;8810;48.680;8.894;2022-10-31T09:48:28;8.55;;;3.05;;
17384;SDS011;8810;48.680;8.894;2022-10-31T09:51:06;7.07;;;2.70;;
17384;SDS011;8810;48.680;8.894;2022-10-31T09:53:37;5.53;;;2.88;;
17384;SDS011;8810;48.680;8.894;2022-10-31T09:56:07;5.80;;;3.10;;
17384;SDS011;8810;48.680;8.894;2022-10-31T09:58:39;8.57;;;3.13;;
17384;SDS011;8810;48.680;8.894;2022-10-31T10:01:14;12.10;;;4.90;;
17384;SDS011;8810;48.680;8.894;2022-10-31T10:03:50;11.55;;;3.00;;
17384;SDS011;8810;48.680;8.894;2022-10-31T10:06:22;6.97;;;2.60;;
17384;SDS011;8810;48.680;8.894;2022-10-31T10:08:52;10.00;;;2.40;;
17384;SDS011;8810;48.680;8.894;2022-10-31T10:11:25;6.53;;;2.90;;
17384;SDS011;8810;48.680;8.894;2022-10-31T10:14:06;11.52;;;2.83;;
17384;SDS011;8810;48.680;8.894;2022-10-31T10:19:51;11.35;;;2.50;;
17384;SDS011;8810;48.680;8.894;2022-10-31T10:22:29;5.90;;;2.60;;
17384;SDS011;8810;48.680;8.894;2022-10-31T10:25:08;8.50;;;2.83;;
17384;SDS011;8810;48.680;8.894;2022-10-31T10:27:44;4.18;;;2.22;;
17384;SDS011;8810;48.680;8.894;2022-10-31T10:30:17;6.50;;;2.70;;
17384;SDS011;8810;48.680;8.894;2022-10-31T10:32:47;5.88;;;2.30;;
17384;SDS011;8810;48.680;8.894;2022-10-31T10:35:20;5.00;;;2.20;;
17384;SDS011;8810;48.680;8.894;2022-10-31T10:37:51;7.00;;;2.47;;
17384;SDS011;8810;48.680;8.894;2022-10-31T10:40:23;7.22;;;2.60;;
17384;SDS011;8810;48.680;8.894;2022-10-31T10:42:54;9.10;;;2.92;;
17384;SDS011;8810;48.680;8.894;2022-10-31T10:45:44;7.82;;;2.70;;
17384;SDS011;8810;48.680;8.894;2022-10-31T10:48:42;9.18;;;2.38;;
17384;SDS011;8810;48.680;8.894;2022-10-31T10:51:15;16.90;;;3.08;;
17384;SDS011;8810;48.680;8.894;2022-10-31T10:53:50;5.40;;;2.80;;
17384;SDS011;8810;48.680;8.894;2022-10-31T10:56:40;5.90;;;2.75;;
17384;SDS011;8810;48.680;8.894;2022-10-31T10:59:16;10.90;;;2.83;;
17384;SDS011;8810;48.680;8.894;2022-10-31T11:01:46;8.52;;;2.92;;
17384;SDS011;8810;48.680;8.894;2022-10-31T11:04:23;8.65;;;2.95;;
17384;SDS011;8810;48.680;8.894;2022-10-31T11:07:00;12.55;;;3.13;;
17384;SDS011;8810;48.680;8.894;2022-10-31T11:09:29;7.32;;;3.33;;
17384;SDS011;8810;48.680;8.894;2022-10-31T11:11:56;9.43;;;3.35;;
17384;SDS011;8810;48.680;8.894;2022-10-31T11:14:24;11.75;;;3.22;;
17384;SDS011;8810;48.680;8.894;2022-10-31T11:16:54;8.82;;;3.45;;
17384;SDS011;8810;48.680;8.894;2022-10-31T11:19:24;6.15;;;3.33;;
17384;SDS011;8810;48.680;8.894;2022-10-31T11:21:52;8.30;;;3.13;;
17384;SDS011;8810;48.680;8.894;2022-10-31T11:24:20;10.50;;;3.00;;
17384;SDS011;8810;48.680;8.894;2022-10-31T11:26:50;12.02;;;3.35;;
17384;SDS011;8810;48.680;8.894;2022-10-31T11:29:20;5.32;;;2.63;;
17384;SDS011;8810;48.680;8.894;2022-10-31T11:31:50;7.35;;;2.65;;
17384;SDS011;8810;48.680;8.894;2022-10-31T11:34:26;6.70;;;3.35;;
17384;SDS011;8810;48.680;8.894;2022-10-31T11:36:57;10.15;;;3.03;;
17384;SDS011;8810;48.680;8.894;2022-10-31T11:39:28;9.23;;;3.45;;
17384;SDS011;8810;48.680;8.894;2022-10-31T11:41:59;11.32;;;3.20;;
17384;SDS011;8810;48.680;8.894;2022-10-31T11:44:27;11.20;;;3.38;;
17384;SDS011;8810;48.680;8.894;2022-10-31T11:46:58;7.03;;;3.00;;
17384;SDS011;8810;48.680;8.894;2022-10-31T11:49:29;10.48;;;2.75;;
17384;SDS011;8810;48.680;8.894;2022-10-31T11:51:59;10.48;;;3.22;;
17384;SDS011;8810;48.680;8.894;2022-10-31T11:54:32;11.20;;;3.33;;
17384;SDS011;8810;48.680;8.894;2022-10-31T11:57:02;8.20;;;3.42;;
17384;SDS011;8810;48.680;8.894;2022-10-31T11:59:29;9.27;;;3.13;;
17384;SDS011;8810;48.680;8.894;2022-10-31T12:01:58;8.85;;;3.30;;
17384;SDS011;8810;48.680;8.894;2022-10-31T12:04:36;8.27;;;3.28;;
17384;SDS011;8810;48.680;8.894;2022-10-31T12:07:07;13.93;;;3.30;;
17384;SDS011;8810;48.680;8.894;2022-10-31T12:09:35;8.52;;;2.83;;
17384;SDS011;8810;48.680;8.894;2022-10-31T12:12:17;9.00;;;3.30;;
17384;SDS011;8810;48.680;8.894;2022-10-31T12:15:15;9.98;;;3.13;;
17384;SDS011;8810;48.680;8.894;2022-10-31T12:17:54;6.10;;;3.53;;
17384;SDS011;8810;48.680;8.894;2022-10-31T12:20:50;7.05;;;3.15;;
17384;SDS011;8810;48.680;8.894;2022-10-31T12:23:25;4.75;;;3.10;;
17384;SDS011;8810;48.680;8.894;2022-10-31T12:26:07;9.98;;;3.30;;
17384;SDS011;8810;48.680;8.894;2022-10-31T12:28:43;5.72;;;2.80;;
17384;SDS011;8810;48.680;8.894;2022-10-31T12:31:26;8.23;;;2.60;;
17384;SDS011;8810;48.680;8.894;2022-10-31T12:34:06;9.10;;;3.28;;
17384;SDS011;8810;48.680;8.894;2022-10-31T12:37:13;13.55;;;3.83;;
17384;SDS011;8810;48.680;8.894;2022-10-31T12:39:51;8.07;;;3.22;;
17384;SDS011;8810;48.680;8.894;2022-10-31T12:42:29;8.38;;;3.47;;
17384;SDS011;8810;48.680;8.894;2022-10-31T12:45:12;9.02;;;3.63;;
17384;SDS011;8810;48.680;8.894;2022-10-31T12:47:59;6.15;;;2.97;;
17384;SDS011;8810;48.680;8.894;2022-10-31T12:50:39;6.63;;;2.90;;
17384;SDS011;8810;48.680;8.894;2022-10-31T12:53:22;8.25;;;3.00;;
17384;SDS011;8810;48.680;8.894;2022-10-31T12:56:06;8.35;;;3.40;;
17384;SDS011;8810;48.680;8.894;2022-10-31T12:58:46;10.60;;;3.90;;
17384;SDS011;8810;48.680;8.894;2022-10-31T13:01:19;12.75;;;3.40;;
17384;SDS011;8810;48.680;8.894;2022-10-31T13:03:51;9.32;;;3.10;;
17384;SDS011;8810;48.680;8.894;2022-10-31T13:06:24;8.65;;;3.00;;
17384;SDS011;8810;48.680;8.894;2022-10-31T13:08:57;6.38;;;3.13;;
17384;SDS011;8810;48.680;8.894;2022-10-31T13:11:28;8.35;;;3.20;;
17384;SDS011;8810;48.680;8.894;2022-10-31T13:14:01;5.88;;;3.08;;
17384;SDS011;8810;48.680;8.894;2022-10-31T13:16:33;9.27;;;3.40;;
17384;SDS011;8810;48.680;8.894;2022-10-31T13:19:05;9.43;;;3.83;;
17384;SDS011;8810;48.680;8.894;2022-10-31T13:21:40;11.50;;;3.35;;
17384;SDS011;8810;48.680;8.894;2022-10-31T13:24:25;13.57;;;3.72;;
17384;SDS011;8810;48.680;8.894;2022-10-31T13:26:57;10.35;;;3.42;;
17384;SDS011;8810;48.680;8.894;2022-10-31T13:29:27;9.18;;;3.17;;
17384;SDS011;8810;48.680;8.894;2022-10-31T13:31:57;6.53;;;3.45;;
17384;SDS011;8810;48.680;8.894;2022-10-31T13:34:25;8.18;;;3.20;;
17384;SDS011;8810;48.680;8.894;2022-10-31T13:37:00;7.60;;;3.35;;
17384;SDS011;8810;48.680;8.894;2022-10-31T13:42:32;11.68;;;3.50;;
17384;SDS011;8810;48.680;8.894;2022-10-31T13:45:13;6.50;;;2.90;;
17384;SDS011;8810;48.680;8.894;2022-10-31T13:47:41;8.70;;;3.33;;
17384;SDS011;8810;48.680;8.894;2022-10-31T13:50:18;7.50;;;3.00;;
17384;SDS011;8810;48.680;8.894;2022-10-31T13:52:47;9.65;;;3.92;;
17384;SDS011;8810;48.680;8.894;2022-10-31T13:58:16;17.00;;;3.28;;
17384;SDS011;8810;48.680;8.894;2022-10-31T14:00:57;9.52;;;3.50;;
17384;SDS011;8810;48.680;8.894;2022-10-31T14:03:32;8.38;;;3.78;;
17384;SDS011;8810;48.680;8.894;2022-10-31T14:06:01;9.63;;;2.97;;
17384;SDS011;8810;48.680;8.894;2022-10-31T14:08:28;10.20;;;3.83;;
17384;SDS011;8810;48.680;8.894;2022-10-31T14:11:01;10.15;;;3.47;;
17384;SDS011;8810;48.680;8.894;2022-10-31T14:13:30;9.95;;;3.45;;
17384;SDS011;8810;48.680;8.894;2022-10-31T14:15:59;13.63;;;3.85;;
17384;SDS011;8810;48.680;8.894;2022-10-31T14:18:29;9.02;;;3.33;;
17384;SDS011;8810;48.680;8.894;2022-10-31T14:20:58;6.43;;;3.45;;
17384;SDS011;8810;48.680;8.894;2022-10-31T14:23:31;12.95;;;3.33;;
17384;SDS011;8810;48.680;8.894;2022-10-31T14:26:17;9.25;;;2.75;;
17384;SDS011;8810;48.680;8.894;2022-10-31T14:28:46;9.85;;;3.20;;
17384;SDS011;8810;48.680;8.894;2022-10-31T14:31:27;5.28;;;2.90;;
17384;SDS011;8810;48.680;8.894;2022-10-31T14:34:05;6.45;;;2.53;;
17384;SDS011;8810;48.680;8.894;2022-10-31T14:36:47;10.55;;;3.08;;
17384;SDS011;8810;48.680;8.894;2022-10-31T14:39:25;6.13;;;2.63;;
17384;SDS011;8810;48.680;8.894;2022-10-31T14:42:03;10.63;;;3.15;;
17384;SDS011;8810;48.680;8.894;2022-10-31T14:47:35;6.70;;;3.10;;
17384;SDS011;8810;48.680;8.894;2022-10-31T14:50:18;7.38;;;2.60;;
17384;SDS011;8810;48.680;8.894;2022-10-31T14:52:52;11.07;;;2.92;;
17384;SDS011;8810;48.680;8.894;2022-10-31T14:55:22;9.05;;;2.92;;
17384;SDS011;8810;48.680;8.894;2022-10-31T14:57:52;12.30;;;2.90;;
17384;SDS011;8810;48.680;8.894;2022-10-31T15:00:22;10.40;;;3.25;;
17384;SDS011;8810;48.680;8.894;2022-10-31T15:02:56;10.20;;;2.95;;
17384;SDS011;8810;48.680;8.894;2022-10-31T15:05:31;9.95;;;3.42;;
17384;SDS011;8810;48.680;8.894;2022-10-31T15:08:00;8.32;;;2.92;;
17384;SDS011;8810;48.680;8.894;2022-10-31T15:10:28;7.47;;;2.92;;
17384;SDS011;8810;48.680;8.894;2022-10-31T15:13:09;8.75;;;2.90;;
17384;SDS011;8810;48.680;8.894;2022-10-31T15:15:37;11.40;;;3.50;;
17384;SDS011;8810;48.680;8.894;2022-10-31T15:18:06;14.23;;;3.42;;
17384;SDS011;8810;48.680;8.894;2022-10-31T15:20:33;8.57;;;3.20;;
17384;SDS011;8810;48.680;8.894;2022-10-31T15:23:05;7.95;;;3.13;;
17384;SDS011;8810;48.680;8.894;2022-10-31T15:25:36;7.55;;;3.10;;
17384;SDS011;8810;48.680;8.894;2022-10-31T15:28:12;9.45;;;3.38;;
17384;SDS011;8810;48.680;8.894;2022-10-31T15:30:49;7.32;;;3.42;;
17384;SDS011;8810;48.680;8.894;2022-10-31T15:33:18;9.18;;;3.80;;
17384;SDS011;8810;48.680;8.894;2022-10-31T15:35:54;11.95;;;5.00;;
17384;SDS011;8810;48.680;8.894;2022-10-31T15:38:21;10.30;;;4.15;;